sensor_id;sensor_type;location;lat;lon;timestamp;P1;P2;P0
20157;PMS5003;10239;56.820;24.416;2023-02-15T00:02:03;12.00;9.20;3.00
20157;PMS5003;10239;56.820;24.416;2023-02-15T00:04:30;7.80;6.20;3.00
20157;PMS5003;10239;56.820;24.416;2023-02-15T00:07:17;6.80;6.80;2.60
20157;PMS5003;10239;56.820;24.416;2023-02-15T00:09:46;12.80;9.60;3.00
20157;PMS5003;10239;56.820;24.416;2023-02-15T00:12:14;8.80;5.60;3.00
20157;PMS5003;10239;56.820;24.416;2023-02-15T00:14:42;10.00;5.60;3.40
20157;PMS5003;10239;56.820;24.416;2023-02-15T00:17:10;9.00;9.00;4.00
20157;PMS5003;10239;56.820;24.416;2023-02-15T00:19:38;9.00;7.40;3.00
20157;PMS5003;10239;56.820;24.416;2023-02-15T00:22:06;14.00;9.80;5.60
20157;PMS5003;10239;56.820;24.416;2023-02-15T00:24:34;6.40;4.00;1.00
20157;PMS5003;10239;56.820;24.416;2023-02-15T00:27:02;11.60;6.20;3.00
20157;PMS5003;10239;56.820;24.416;2023-02-15T00:29:30;10.80;6.40;3.40
20157;PMS5003;10239;56.820;24.416;2023-02-15T00:31:58;6.00;6.00;3.00
20157;PMS5003;10239;56.820;24.416;2023-02-15T00:34:26;9.20;6.80;3.00
20157;PMS5003;10239;56.820;24.416;2023-02-15T00:36:55;9.60;5.60;3.20
20157;PMS5003;10239;56.820;24.416;2023-02-15T00:39:23;8.80;7.00;2.20
20157;PMS5003;10239;56.820;24.416;2023-02-15T00:41:51;8.60;7.80;1.40
20157;PMS5003;10239;56.820;24.416;2023-02-15T00:44:19;8.00;6.60;3.00
20157;PMS5003;10239;56.820;24.416;2023-02-15T00:46:47;12.20;8.60;3.20
20157;PMS5003;10239;56.820;24.416;2023-02-15T00:49:14;10.80;6.40;3.00
20157;PMS5003;10239;56.820;24.416;2023-02-15T00:51:42;12.00;8.60;5.20
20157;PMS5003;10239;56.820;24.416;2023-02-15T00:54:10;12.00;10.20;3.80
20157;PMS5003;10239;56.820;24.416;2023-02-15T00:56:37;11.40;7.00;2.60
20157;PMS5003;10239;56.820;24.416;2023-02-15T00:59:05;6.40;6.40;3.00
20157;PMS5003;10239;56.820;24.416;2023-02-15T01:01:33;8.20;8.20;3.00
20157;PMS5003;10239;56.820;24.416;2023-02-15T01:04:01;3.20;3.00;3.00
20157;PMS5003;10239;56.820;24.416;2023-02-15T01:06:28;6.60;6.60;3.00
20157;PMS5003;10239;56.820;24.416;2023-02-15T01:08:56;9.80;6.80;3.40
20157;PMS5003;10239;56.820;24.416;2023-02-15T01:11:24;9.00;7.00;1.80
20157;PMS5003;10239;56.820;24.416;2023-02-15T01:13:55;5.60;3.40;0.00
20157;PMS5003;10239;56.820;24.416;2023-02-15T01:16:25;5.60;5.60;3.80
20157;PMS5003;10239;56.820;24.416;2023-02-15T01:18:55;8.20;5.80;3.20
20157;PMS5003;10239;56.820;24.416;2023-02-15T01:21:23;14.20;10.00;4.00
20157;PMS5003;10239;56.820;24.416;2023-02-15T01:23:52;14.20;7.80;4.20
20157;PMS5003;10239;56.820;24.416;2023-02-15T01:26:20;7.80;7.80;4.00
20157;PMS5003;10239;56.820;24.416;2023-02-15T01:28:47;7.40;6.00;3.00
20157;PMS5003;10239;56.820;24.416;2023-02-15T01:31:16;7.20;6.00;2.60
20157;PMS5003;10239;56.820;24.416;2023-02-15T01:33:46;14.40;9.00;4.80
20157;PMS5003;10239;56.820;24.416;2023-02-15T01:36:15;13.80;7.00;3.00
20157;PMS5003;10239;56.820;24.416;2023-02-15T01:38:44;11.00;9.60;3.40
20157;PMS5003;10239;56.820;24.416;2023-02-15T01:41:12;12.20;9.80;4.00
20157;PMS5003;10239;56.820;24.416;2023-02-15T01:43:58;15.20;5.20;3.00
20157;PMS5003;10239;56.820;24.416;2023-02-15T01:46:35;1.00;1.00;0.00
20157;PMS5003;10239;56.820;24.416;2023-02-15T01:49:10;6.60;6.20;1.80
20157;PMS5003;10239;56.820;24.416;2023-02-15T01:51:42;13.40;9.00;3.40
20157;PMS5003;10239;56.820;24.416;2023-02-15T01:54:15;9.20;6.40;2.20
20157;PMS5003;10239;56.820;24.416;2023-02-15T01:56:51;9.00;5.20;2.60
20157;PMS5003;10239;56.820;24.416;2023-02-15T01:59:21;11.20;7.40;3.80
20157;PMS5003;10239;56.820;24.416;2023-02-15T02:01:52;13.50;7.50;6.00
20157;PMS5003;10239;56.820;24.416;2023-02-15T02:06:55;10.75;9.00;3.50
20157;PMS5003;10239;56.820;24.416;2023-02-15T02:09:26;17.25;12.50;4.50
20157;PMS5003;10239;56.820;24.416;2023-02-15T02:11:54;14.75;7.50;3.75
20157;PMS5003;10239;56.820;24.416;2023-02-15T02:14:22;11.75;9.25;3.25
20157;PMS5003;10239;56.820;24.416;2023-02-15T02:17:12;8.50;6.00;3.75
20157;PMS5003;10239;56.820;24.416;2023-02-15T02:28:23;25.00;17.75;7.00
20157;PMS5003;10239;56.820;24.416;2023-02-15T02:39:44;12.50;8.50;6.00
20157;PMS5003;10239;56.820;24.416;2023-02-15T02:42:27;18.25;16.00;6.00
20157;PMS5003;10239;56.820;24.416;2023-02-15T02:47:59;14.00;7.50;4.00
20157;PMS5003;10239;56.820;24.416;2023-02-15T02:50:32;18.25;13.00;7.00
20157;PMS5003;10239;56.820;24.416;2023-02-15T02:53:00;15.25;12.50;8.50
20157;PMS5003;10239;56.820;24.416;2023-02-15T02:58:05;22.60;14.20;7.00
20157;PMS5003;10239;56.820;24.416;2023-02-15T03:00:50;18.40;16.60;7.00
20157;PMS5003;10239;56.820;24.416;2023-02-15T03:03:25;15.80;11.20;6.00
20157;PMS5003;10239;56.820;24.416;2023-02-15T03:06:06;13.20;11.80;7.00
20157;PMS5003;10239;56.820;24.416;2023-02-15T03:08:42;11.60;6.60;3.00
20157;PMS5003;10239;56.820;24.416;2023-02-15T03:11:15;10.60;9.20;5.60
20157;PMS5003;10239;56.820;24.416;2023-02-15T03:13:43;8.20;8.20;4.00
20157;PMS5003;10239;56.820;24.416;2023-02-15T03:16:14;12.00;7.80;4.00
20157;PMS5003;10239;56.820;24.416;2023-02-15T03:19:30;9.40;9.40;1.00
20157;PMS5003;10239;56.820;24.416;2023-02-15T03:22:03;12.80;11.60;5.60
20157;PMS5003;10239;56.820;24.416;2023-02-15T03:24:44;15.80;13.80;6.00
20157;PMS5003;10239;56.820;24.416;2023-02-15T03:27:19;9.60;7.00;3.00
20157;PMS5003;10239;56.820;24.416;2023-02-15T03:29:55;9.60;9.40;3.60
20157;PMS5003;10239;56.820;24.416;2023-02-15T03:32:27;13.00;10.00;4.80
20157;PMS5003;10239;56.820;24.416;2023-02-15T03:34:56;16.40;10.60;5.60
20157;PMS5003;10239;56.820;24.416;2023-02-15T03:37:26;9.60;9.00;1.00
20157;PMS5003;10239;56.820;24.416;2023-02-15T03:40:02;7.00;7.00;4.00
20157;PMS5003;10239;56.820;24.416;2023-02-15T03:45:51;15.00;8.20;5.20
20157;PMS5003;10239;56.820;24.416;2023-02-15T03:48:31;15.60;12.60;6.20
20157;PMS5003;10239;56.820;24.416;2023-02-15T03:51:05;19.80;12.20;8.20
20157;PMS5003;10239;56.820;24.416;2023-02-15T03:53:55;9.40;9.40;4.00
20157;PMS5003;10239;56.820;24.416;2023-02-15T03:56:25;13.40;10.00;6.00
20157;PMS5003;10239;56.820;24.416;2023-02-15T03:58:53;13.00;9.00;5.20
20157;PMS5003;10239;56.820;24.416;2023-02-15T04:01:40;15.60;9.20;4.40
20157;PMS5003;10239;56.820;24.416;2023-02-15T04:04:35;12.00;7.40;4.00
20157;PMS5003;10239;56.820;24.416;2023-02-15T04:07:06;10.20;5.20;0.20
20157;PMS5003;10239;56.820;24.416;2023-02-15T04:09:34;12.40;10.80;5.20
20157;PMS5003;10239;56.820;24.416;2023-02-15T04:12:21;11.40;9.60;4.00
20157;PMS5003;10239;56.820;24.416;2023-02-15T04:14:48;10.00;6.80;3.40
20157;PMS5003;10239;56.820;24.416;2023-02-15T04:17:35;16.80;10.40;6.00
20157;PMS5003;10239;56.820;24.416;2023-02-15T04:20:04;15.40;12.80;4.00
20157;PMS5003;10239;56.820;24.416;2023-02-15T04:22:51;10.20;8.60;3.00
20157;PMS5003;10239;56.820;24.416;2023-02-15T04:25:37;6.40;6.40;2.60
20157;PMS5003;10239;56.820;24.416;2023-02-15T04:28:04;14.60;9.80;5.60
20157;PMS5003;10239;56.820;24.416;2023-02-15T04:30:34;14.20;9.40;4.00
20157;PMS5003;10239;56.820;24.416;2023-02-15T04:33:02;8.20;6.00;1.80
20157;PMS5003;10239;56.820;24.416;2023-02-15T04:35:29;10.40;7.40;4.40
20157;PMS5003;10239;56.820;24.416;2023-02-15T04:37:58;12.40;7.80;3.40
20157;PMS5003;10239;56.820;24.416;2023-02-15T04:40:25;9.80;9.40;4.00
20157;PMS5003;10239;56.820;24.416;2023-02-15T04:42:53;7.20;6.40;3.40
20157;PMS5003;10239;56.820;24.416;2023-02-15T04:45:20;7.80;6.60;4.00
20157;PMS5003;10239;56.820;24.416;2023-02-15T04:47:48;13.60;11.60;5.20
20157;PMS5003;10239;56.820;24.416;2023-02-15T04:50:16;18.80;12.00;4.00
20157;PMS5003;10239;56.820;24.416;2023-02-15T04:52:43;17.80;13.80;6.60
20157;PMS5003;10239;56.820;24.416;2023-02-15T04:55:11;9.60;9.60;5.60
20157;PMS5003;10239;56.820;24.416;2023-02-15T04:57:38;12.00;9.00;4.40
20157;PMS5003;10239;56.820;24.416;2023-02-15T05:00:05;14.00;9.40;4.80
20157;PMS5003;10239;56.820;24.416;2023-02-15T05:02:35;12.00;9.00;3.80
20157;PMS5003;10239;56.820;24.416;2023-02-15T05:05:03;16.80;14.80;5.20
20157;PMS5003;10239;56.820;24.416;2023-02-15T05:07:31;18.40;10.00;4.40
20157;PMS5003;10239;56.820;24.416;2023-02-15T05:09:58;12.20;8.40;4.00
20157;PMS5003;10239;56.820;24.416;2023-02-15T05:12:26;11.60;9.20;6.80
20157;PMS5003;10239;56.820;24.416;2023-02-15T05:14:53;17.60;12.00;6.00
20157;PMS5003;10239;56.820;24.416;2023-02-15T05:17:21;9.60;9.60;3.60
20157;PMS5003;10239;56.820;24.416;2023-02-15T05:19:48;12.20;10.40;6.00
20157;PMS5003;10239;56.820;24.416;2023-02-15T05:22:16;18.60;14.00;9.80
20157;PMS5003;10239;56.820;24.416;2023-02-15T05:24:43;15.00;8.60;6.00
20157;PMS5003;10239;56.820;24.416;2023-02-15T05:27:29;10.00;8.20;4.00
20157;PMS5003;10239;56.820;24.416;2023-02-15T05:30:15;13.20;10.80;4.00
20157;PMS5003;10239;56.820;24.416;2023-02-15T05:32:42;9.20;9.20;5.20
20157;PMS5003;10239;56.820;24.416;2023-02-15T05:35:12;16.00;7.40;4.00
20157;PMS5003;10239;56.820;24.416;2023-02-15T05:37:42;6.00;6.00;4.00
20157;PMS5003;10239;56.820;24.416;2023-02-15T05:40:10;17.80;14.60;7.00
20157;PMS5003;10239;56.820;24.416;2023-02-15T05:42:38;14.60;8.40;4.00
20157;PMS5003;10239;56.820;24.416;2023-02-15T05:45:05;12.80;10.00;4.40
20157;PMS5003;10239;56.820;24.416;2023-02-15T05:47:33;12.80;7.00;4.00
20157;PMS5003;10239;56.820;24.416;2023-02-15T05:50:06;15.50;10.50;7.00
20157;PMS5003;10239;56.820;24.416;2023-02-15T05:52:34;9.50;7.00;4.50
20157;PMS5003;10239;56.820;24.416;2023-02-15T05:55:03;16.25;11.75;2.75
20157;PMS5003;10239;56.820;24.416;2023-02-15T05:57:31;14.00;10.00;4.00
20157;PMS5003;10239;56.820;24.416;2023-02-15T05:59:59;8.25;6.75;3.25
20157;PMS5003;10239;56.820;24.416;2023-02-15T06:02:36;13.75;8.00;4.00
20157;PMS5003;10239;56.820;24.416;2023-02-15T06:05:05;16.00;14.20;6.00
20157;PMS5003;10239;56.820;24.416;2023-02-15T06:07:35;12.20;10.80;6.40
20157;PMS5003;10239;56.820;24.416;2023-02-15T06:10:03;13.75;9.50;6.00
20157;PMS5003;10239;56.820;24.416;2023-02-15T06:12:31;13.75;10.00;3.25
20157;PMS5003;10239;56.820;24.416;2023-02-15T06:14:59;10.20;4.60;0.00
20157;PMS5003;10239;56.820;24.416;2023-02-15T06:17:26;14.00;9.20;4.00
20157;PMS5003;10239;56.820;24.416;2023-02-15T06:19:54;9.40;7.40;3.60
20157;PMS5003;10239;56.820;24.416;2023-02-15T06:22:21;10.20;8.60;4.00
20157;PMS5003;10239;56.820;24.416;2023-02-15T06:24:49;12.40;9.20;4.00
20157;PMS5003;10239;56.820;24.416;2023-02-15T06:27:17;13.40;7.40;3.20
20157;PMS5003;10239;56.820;24.416;2023-02-15T06:29:44;12.20;11.60;4.80
20157;PMS5003;10239;56.820;24.416;2023-02-15T06:32:11;10.60;9.00;4.00
20157;PMS5003;10239;56.820;24.416;2023-02-15T06:34:39;11.00;8.00;4.80
20157;PMS5003;10239;56.820;24.416;2023-02-15T06:37:07;10.20;7.60;4.00
20157;PMS5003;10239;56.820;24.416;2023-02-15T06:39:37;11.20;6.40;2.00
20157;PMS5003;10239;56.820;24.416;2023-02-15T06:42:05;4.80;4.80;2.00
20157;PMS5003;10239;56.820;24.416;2023-02-15T06:44:32;11.40;7.00;2.00
20157;PMS5003;10239;56.820;24.416;2023-02-15T06:47:00;15.20;8.80;5.40
20157;PMS5003;10239;56.820;24.416;2023-02-15T06:49:27;9.00;9.00;4.40
20157;PMS5003;10239;56.820;24.416;2023-02-15T06:51:55;10.20;5.60;3.00
20157;PMS5003;10239;56.820;24.416;2023-02-15T06:54:22;8.20;3.00;2.60
20157;PMS5003;10239;56.820;24.416;2023-02-15T06:56:50;9.00;9.00;3.80
20157;PMS5003;10239;56.820;24.416;2023-02-15T06:59:18;11.40;7.60;3.00
20157;PMS5003;10239;56.820;24.416;2023-02-15T07:01:45;4.60;2.40;0.60
20157;PMS5003;10239;56.820;24.416;2023-02-15T07:04:13;10.60;8.00;3.20
20157;PMS5003;10239;56.820;24.416;2023-02-15T07:06:41;4.40;2.80;1.00
20157;PMS5003;10239;56.820;24.416;2023-02-15T07:09:09;6.60;6.60;2.80
20157;PMS5003;10239;56.820;24.416;2023-02-15T07:11:37;8.00;7.00;3.00
20157;PMS5003;10239;56.820;24.416;2023-02-15T07:14:23;5.20;5.20;2.00
20157;PMS5003;10239;56.820;24.416;2023-02-15T07:16:54;3.40;3.20;2.00
20157;PMS5003;10239;56.820;24.416;2023-02-15T07:19:21;4.20;4.20;2.00
20157;PMS5003;10239;56.820;24.416;2023-02-15T07:21:49;3.20;2.00;1.00
20157;PMS5003;10239;56.820;24.416;2023-02-15T07:24:16;8.40;5.80;3.00
20157;PMS5003;10239;56.820;24.416;2023-02-15T07:26:44;7.40;4.80;2.80
20157;PMS5003;10239;56.820;24.416;2023-02-15T07:29:11;9.80;7.00;3.00
20157;PMS5003;10239;56.820;24.416;2023-02-15T07:31:39;5.20;5.20;2.00
20157;PMS5003;10239;56.820;24.416;2023-02-15T07:34:06;8.80;5.80;2.20
20157;PMS5003;10239;56.820;24.416;2023-02-15T07:36:34;10.40;7.00;3.00
20157;PMS5003;10239;56.820;24.416;2023-02-15T07:39:02;2.20;1.20;1.00
20157;PMS5003;10239;56.820;24.416;2023-02-15T07:41:30;5.20;5.20;2.00
20157;PMS5003;10239;56.820;24.416;2023-02-15T07:43:57;11.00;9.60;3.80
20157;PMS5003;10239;56.820;24.416;2023-02-15T07:46:25;10.00;7.00;3.40
20157;PMS5003;10239;56.820;24.416;2023-02-15T07:48:52;12.40;6.00;2.40
20157;PMS5003;10239;56.820;24.416;2023-02-15T07:51:20;6.60;3.80;2.20
20157;PMS5003;10239;56.820;24.416;2023-02-15T07:53:47;4.80;4.80;1.00
20157;PMS5003;10239;56.820;24.416;2023-02-15T07:56:15;7.40;6.40;4.00
20157;PMS5003;10239;56.820;24.416;2023-02-15T07:58:42;4.60;4.60;2.00
20157;PMS5003;10239;56.820;24.416;2023-02-15T08:01:29;7.00;5.00;2.00
20157;PMS5003;10239;56.820;24.416;2023-02-15T08:03:58;8.00;6.00;3.60
20157;PMS5003;10239;56.820;24.416;2023-02-15T08:06:28;9.40;8.00;4.00
20157;PMS5003;10239;56.820;24.416;2023-02-15T08:08:57;15.60;10.80;4.60
20157;PMS5003;10239;56.820;24.416;2023-02-15T08:11:25;12.80;8.00;4.20
20157;PMS5003;10239;56.820;24.416;2023-02-15T08:14:07;14.40;7.60;4.40
20157;PMS5003;10239;56.820;24.416;2023-02-15T08:16:42;11.20;9.00;4.20
20157;PMS5003;10239;56.820;24.416;2023-02-15T08:19:15;9.60;8.80;2.00
20157;PMS5003;10239;56.820;24.416;2023-02-15T08:24:24;10.80;9.00;4.00
20157;PMS5003;10239;56.820;24.416;2023-02-15T08:26:54;7.80;7.80;5.00
20157;PMS5003;10239;56.820;24.416;2023-02-15T08:29:23;13.80;7.40;2.80
20157;PMS5003;10239;56.820;24.416;2023-02-15T08:31:54;11.60;7.80;4.00
20157;PMS5003;10239;56.820;24.416;2023-02-15T08:34:33;12.80;10.00;3.60
20157;PMS5003;10239;56.820;24.416;2023-02-15T08:37:03;13.80;9.60;4.00
20157;PMS5003;10239;56.820;24.416;2023-02-15T08:39:30;13.00;8.00;4.00
20157;PMS5003;10239;56.820;24.416;2023-02-15T08:41:57;12.80;7.40;3.60
20157;PMS5003;10239;56.820;24.416;2023-02-15T08:44:25;11.80;10.60;4.80
20157;PMS5003;10239;56.820;24.416;2023-02-15T08:46:52;9.80;9.80;5.00
20157;PMS5003;10239;56.820;24.416;2023-02-15T08:49:21;13.00;10.60;4.00
20157;PMS5003;10239;56.820;24.416;2023-02-15T08:51:50;13.60;11.00;5.00
20157;PMS5003;10239;56.820;24.416;2023-02-15T08:54:18;13.40;13.40;5.00
20157;PMS5003;10239;56.820;24.416;2023-02-15T08:56:47;10.00;5.00;2.00
20157;PMS5003;10239;56.820;24.416;2023-02-15T08:59:16;14.60;8.60;4.00
20157;PMS5003;10239;56.820;24.416;2023-02-15T09:01:45;10.40;10.00;4.00
20157;PMS5003;10239;56.820;24.416;2023-02-15T09:04:14;11.20;10.20;4.00
20157;PMS5003;10239;56.820;24.416;2023-02-15T09:06:43;11.40;6.80;1.00
20157;PMS5003;10239;56.820;24.416;2023-02-15T09:09:14;9.60;8.40;3.20
20157;PMS5003;10239;56.820;24.416;2023-02-15T09:11:43;15.40;9.40;3.60
20157;PMS5003;10239;56.820;24.416;2023-02-15T09:14:19;17.20;11.20;4.80
20157;PMS5003;10239;56.820;24.416;2023-02-15T09:16:48;9.40;9.40;2.00
20157;PMS5003;10239;56.820;24.416;2023-02-15T09:19:19;15.60;7.00;4.40
20157;PMS5003;10239;56.820;24.416;2023-02-15T09:21:49;13.80;11.20;2.80
20157;PMS5003;10239;56.820;24.416;2023-02-15T09:24:17;9.40;9.40;4.20
20157;PMS5003;10239;56.820;24.416;2023-02-15T09:26:46;12.60;8.40;2.00
20157;PMS5003;10239;56.820;24.416;2023-02-15T09:29:15;12.00;8.80;2.40
20157;PMS5003;10239;56.820;24.416;2023-02-15T09:31:45;13.00;7.80;4.00
20157;PMS5003;10239;56.820;24.416;2023-02-15T09:34:16;17.00;10.00;4.00
20157;PMS5003;10239;56.820;24.416;2023-02-15T09:36:45;13.80;10.00;4.00
20157;PMS5003;10239;56.820;24.416;2023-02-15T09:39:18;13.80;8.80;4.00
20157;PMS5003;10239;56.820;24.416;2023-02-15T09:55:43;9.20;8.20;2.40
20157;PMS5003;10239;56.820;24.416;2023-02-15T10:04:47;10.40;8.00;4.00
20157;PMS5003;10239;56.820;24.416;2023-02-15T10:10:42;9.60;6.20;1.00
20157;PMS5003;10239;56.820;24.416;2023-02-15T10:16:33;13.00;12.00;2.20
20157;PMS5003;10239;56.820;24.416;2023-02-15T10:27:20;14.80;7.60;2.20
20157;PMS5003;10239;56.820;24.416;2023-02-15T10:33:22;11.00;6.60;2.20
20157;PMS5003;10239;56.820;24.416;2023-02-15T10:38:46;14.20;7.80;2.00
20157;PMS5003;10239;56.820;24.416;2023-02-15T10:43:55;7.00;4.40;1.20
20157;PMS5003;10239;56.820;24.416;2023-02-15T10:46:43;5.80;5.40;2.60
20157;PMS5003;10239;56.820;24.416;2023-02-15T10:50:01;10.00;7.00;1.80
20157;PMS5003;10239;56.820;24.416;2023-02-15T10:52:59;10.80;6.20;4.00
20157;PMS5003;10239;56.820;24.416;2023-02-15T10:55:44;14.20;6.20;1.80
20157;PMS5003;10239;56.820;24.416;2023-02-15T10:58:26;8.60;6.60;2.20
20157;PMS5003;10239;56.820;24.416;2023-02-15T11:06:50;7.40;5.80;2.80
20157;PMS5003;10239;56.820;24.416;2023-02-15T11:09:24;11.80;8.00;2.00
20157;PMS5003;10239;56.820;24.416;2023-02-15T11:11:59;6.20;6.20;2.00
20157;PMS5003;10239;56.820;24.416;2023-02-15T11:17:14;5.00;5.00;2.00
20157;PMS5003;10239;56.820;24.416;2023-02-15T11:22:27;4.20;4.20;1.00
20157;PMS5003;10239;56.820;24.416;2023-02-15T11:24:57;8.40;7.00;2.20
20157;PMS5003;10239;56.820;24.416;2023-02-15T11:27:28;7.80;5.00;1.00
20157;PMS5003;10239;56.820;24.416;2023-02-15T11:30:00;12.20;6.20;1.80
20157;PMS5003;10239;56.820;24.416;2023-02-15T11:32:37;5.60;3.80;1.00
20157;PMS5003;10239;56.820;24.416;2023-02-15T11:40:30;7.40;6.60;2.20
20157;PMS5003;10239;56.820;24.416;2023-02-15T11:43:01;9.00;6.80;1.80
20157;PMS5003;10239;56.820;24.416;2023-02-15T11:45:37;6.60;4.00;1.00
20157;PMS5003;10239;56.820;24.416;2023-02-15T11:48:09;3.20;3.20;1.00
20157;PMS5003;10239;56.820;24.416;2023-02-15T11:50:39;9.80;5.60;2.20
20157;PMS5003;10239;56.820;24.416;2023-02-15T11:53:15;7.00;3.00;1.00
20157;PMS5003;10239;56.820;24.416;2023-02-15T11:55:54;6.20;4.80;2.20
20157;PMS5003;10239;56.820;24.416;2023-02-15T12:01:30;8.20;5.00;2.00
20157;PMS5003;10239;56.820;24.416;2023-02-15T12:04:10;5.80;5.80;1.40
20157;PMS5003;10239;56.820;24.416;2023-02-15T12:06:53;7.60;5.40;1.80
20157;PMS5003;10239;56.820;24.416;2023-02-15T12:09:50;3.20;0.80;0.00
20157;PMS5003;10239;56.820;24.416;2023-02-15T12:12:32;3.40;3.40;1.80
20157;PMS5003;10239;56.820;24.416;2023-02-15T12:15:02;5.80;4.00;1.00
20157;PMS5003;10239;56.820;24.416;2023-02-15T12:17:33;1.40;1.00;0.40
20157;PMS5003;10239;56.820;24.416;2023-02-15T12:20:03;4.80;1.00;0.00
20157;PMS5003;10239;56.820;24.416;2023-02-15T12:23:05;5.20;3.00;1.00
20157;PMS5003;10239;56.820;24.416;2023-02-15T12:25:43;0.80;0.80;0.00
20157;PMS5003;10239;56.820;24.416;2023-02-15T12:28:26;3.00;3.00;0.60
20157;PMS5003;10239;56.820;24.416;2023-02-15T12:31:01;4.00;4.00;1.00
20157;PMS5003;10239;56.820;24.416;2023-02-15T12:33:35;4.00;2.40;0.00
20157;PMS5003;10239;56.820;24.416;2023-02-15T12:36:24;4.00;2.20;1.00
20157;PMS5003;10239;56.820;24.416;2023-02-15T12:42:01;3.00;3.00;1.00
20157;PMS5003;10239;56.820;24.416;2023-02-15T12:44:31;3.80;3.80;1.00
20157;PMS5003;10239;56.820;24.416;2023-02-15T12:49:44;9.20;5.00;2.20
20157;PMS5003;10239;56.820;24.416;2023-02-15T12:52:30;6.20;3.40;1.60
20157;PMS5003;10239;56.820;24.416;2023-02-15T12:55:10;4.20;4.00;1.00
20157;PMS5003;10239;56.820;24.416;2023-02-15T12:57:45;3.60;3.60;1.00
20157;PMS5003;10239;56.820;24.416;2023-02-15T13:02:51;6.60;3.20;1.00
20157;PMS5003;10239;56.820;24.416;2023-02-15T13:05:37;6.20;2.40;1.00
20157;PMS5003;10239;56.820;24.416;2023-02-15T13:08:17;4.00;4.00;2.00
20157;PMS5003;10239;56.820;24.416;2023-02-15T13:10:54;3.00;3.00;1.00
20157;PMS5003;10239;56.820;24.416;2023-02-15T13:13:29;1.00;1.00;0.00
20157;PMS5003;10239;56.820;24.416;2023-02-15T13:16:05;3.20;3.20;0.00
20157;PMS5003;10239;56.820;24.416;2023-02-15T13:18:39;2.60;1.00;0.00
20157;PMS5003;10239;56.820;24.416;2023-02-15T13:23:44;2.20;2.20;1.00
20157;PMS5003;10239;56.820;24.416;2023-02-15T13:26:16;2.40;2.40;1.00
20157;PMS5003;10239;56.820;24.416;2023-02-15T13:28:54;3.00;2.20;1.00
20157;PMS5003;10239;56.820;24.416;2023-02-15T13:31:25;1.40;1.40;0.00
20157;PMS5003;10239;56.820;24.416;2023-02-15T13:34:14;2.20;2.20;0.60
20157;PMS5003;10239;56.820;24.416;2023-02-15T13:39:34;2.20;2.20;1.00
20157;PMS5003;10239;56.820;24.416;2023-02-15T13:53:41;2.80;2.20;0.60
20157;PMS5003;10239;56.820;24.416;2023-02-15T14:04:31;0.20;0.20;0.00
20157;PMS5003;10239;56.820;24.416;2023-02-15T14:10:19;1.00;1.00;0.80
20157;PMS5003;10239;56.820;24.416;2023-02-15T14:21:34;4.00;1.00;1.00
20157;PMS5003;10239;56.820;24.416;2023-02-15T14:30:20;6.20;3.40;1.00
20157;PMS5003;10239;56.820;24.416;2023-02-15T14:32:59;6.60;3.60;1.00
20157;PMS5003;10239;56.820;24.416;2023-02-15T14:35:43;20.80;12.80;5.60
20157;PMS5003;10239;56.820;24.416;2023-02-15T14:41:12;6.20;4.00;1.00
20157;PMS5003;10239;56.820;24.416;2023-02-15T14:43:49;4.80;3.00;1.00
20157;PMS5003;10239;56.820;24.416;2023-02-15T14:46:21;6.80;3.60;2.60
20157;PMS5003;10239;56.820;24.416;2023-02-15T14:48:54;12.20;4.80;3.00
20157;PMS5003;10239;56.820;24.416;2023-02-15T14:52:00;11.00;1.00;0.00
20157;PMS5003;10239;56.820;24.416;2023-02-15T14:56:45;3.00;3.00;1.00
20157;PMS5003;10239;56.820;24.416;2023-02-15T15:02:24;1.00;1.00;0.00
20157;PMS5003;10239;56.820;24.416;2023-02-15T15:05:09;3.80;3.80;1.00
20157;PMS5003;10239;56.820;24.416;2023-02-15T15:12:44;2.20;2.20;0.40
20157;PMS5003;10239;56.820;24.416;2023-02-15T15:20:39;3.40;3.00;1.00
20157;PMS5003;10239;56.820;24.416;2023-02-15T15:31:04;5.20;3.00;1.00
20157;PMS5003;10239;56.820;24.416;2023-02-15T15:51:01;5.20;3.00;0.20
20157;PMS5003;10239;56.820;24.416;2023-02-15T15:53:40;1.80;1.80;0.40
20157;PMS5003;10239;56.820;24.416;2023-02-15T15:56:13;2.60;2.60;0.80
20157;PMS5003;10239;56.820;24.416;2023-02-15T15:58:45;3.80;3.80;1.00
20157;PMS5003;10239;56.820;24.416;2023-02-15T16:01:20;3.60;3.60;0.60
20157;PMS5003;10239;56.820;24.416;2023-02-15T16:03:54;3.00;3.00;1.00
20157;PMS5003;10239;56.820;24.416;2023-02-15T16:06:41;7.60;3.80;1.40
20157;PMS5003;10239;56.820;24.416;2023-02-15T16:11:42;10.40;4.80;1.80
20157;PMS5003;10239;56.820;24.416;2023-02-15T16:14:11;6.80;4.00;1.80
20157;PMS5003;10239;56.820;24.416;2023-02-15T16:16:41;11.00;4.00;1.00
20157;PMS5003;10239;56.820;24.416;2023-02-15T16:19:18;0.00;0.00;0.00
20157;PMS5003;10239;56.820;24.416;2023-02-15T16:21:48;3.80;3.80;1.00
20157;PMS5003;10239;56.820;24.416;2023-02-15T16:24:20;10.00;6.20;1.80
20157;PMS5003;10239;56.820;24.416;2023-02-15T16:29:47;5.00;4.00;1.00
20157;PMS5003;10239;56.820;24.416;2023-02-15T16:32:16;5.20;5.20;1.00
20157;PMS5003;10239;56.820;24.416;2023-02-15T16:34:59;3.60;3.60;1.00
20157;PMS5003;10239;56.820;24.416;2023-02-15T16:37:33;5.00;4.40;1.40
20157;PMS5003;10239;56.820;24.416;2023-02-15T16:40:01;0.00;0.00;0.00
20157;PMS5003;10239;56.820;24.416;2023-02-15T16:42:28;6.25;4.00;1.00
20157;PMS5003;10239;56.820;24.416;2023-02-15T16:45:07;6.50;3.00;1.00
20157;PMS5003;10239;56.820;24.416;2023-02-15T16:47:41;6.25;3.50;1.00
20157;PMS5003;10239;56.820;24.416;2023-02-15T16:50:20;9.25;3.00;1.00
20157;PMS5003;10239;56.820;24.416;2023-02-15T16:52:53;8.50;7.00;1.00
20157;PMS5003;10239;56.820;24.416;2023-02-15T16:55:21;5.50;3.00;1.00
20157;PMS5003;10239;56.820;24.416;2023-02-15T16:57:51;6.50;4.00;3.00
20157;PMS5003;10239;56.820;24.416;2023-02-15T17:00:28;3.60;3.60;1.00
20157;PMS5003;10239;56.820;24.416;2023-02-15T17:03:00;2.60;2.60;0.40
20157;PMS5003;10239;56.820;24.416;2023-02-15T17:05:33;5.40;3.40;1.00
20157;PMS5003;10239;56.820;24.416;2023-02-15T17:13:27;6.00;4.80;3.00
20157;PMS5003;10239;56.820;24.416;2023-02-15T17:18:29;6.20;4.40;1.80
20157;PMS5003;10239;56.820;24.416;2023-02-15T17:21:00;3.80;3.80;1.00
20157;PMS5003;10239;56.820;24.416;2023-02-15T17:23:42;10.80;6.20;3.00
20157;PMS5003;10239;56.820;24.416;2023-02-15T17:26:19;6.00;1.80;1.00
20157;PMS5003;10239;56.820;24.416;2023-02-15T17:28:52;3.20;3.20;0.00
20157;PMS5003;10239;56.820;24.416;2023-02-15T17:31:24;10.20;6.00;1.40
20157;PMS5003;10239;56.820;24.416;2023-02-15T17:33:58;4.80;4.80;1.40
20157;PMS5003;10239;56.820;24.416;2023-02-15T17:36:27;12.75;4.00;0.75
20157;PMS5003;10239;56.820;24.416;2023-02-15T17:41:24;3.60;3.60;1.40
20157;PMS5003;10239;56.820;24.416;2023-02-15T17:43:52;13.00;8.75;3.25
20157;PMS5003;10239;56.820;24.416;2023-02-15T17:46:20;8.00;4.00;0.75
20157;PMS5003;10239;56.820;24.416;2023-02-15T17:48:51;13.00;7.00;4.00
20157;PMS5003;10239;56.820;24.416;2023-02-15T17:51:21;5.60;4.60;2.60
20157;PMS5003;10239;56.820;24.416;2023-02-15T17:53:49;10.20;6.80;1.00
20157;PMS5003;10239;56.820;24.416;2023-02-15T17:56:36;6.25;6.00;3.00
20157;PMS5003;10239;56.820;24.416;2023-02-15T17:59:04;7.00;3.40;0.40